createdAt,value
2023-02-06T00:02:04.735Z,102588.41
2023-02-06T00:07:06.357Z,102584.09
2023-02-06T00:12:07.951Z,102580.91
2023-02-06T00:17:09.495Z,102569.22
2023-02-06T00:22:13.557Z,102571.06
2023-02-06T00:27:15.137Z,102572.03
2023-02-06T00:32:16.707Z,102587.28
2023-02-06T00:37:18.495Z,102611.97
2023-02-06T00:42:20.139Z,102632.09
2023-02-06T00:47:21.771Z,102663.25
2023-02-06T00:52:23.330Z,102661.75
2023-02-06T00:57:24.869Z,102652.16
2023-02-06T01:02:26.879Z,102636.91
2023-02-06T01:07:28.546Z,102629.78
2023-02-06T01:12:30.136Z,102639.97
2023-02-06T01:17:32.804Z,102634.78
2023-02-06T01:22:35.358Z,102625.88
2023-02-06T01:27:37.932Z,102621.34
2023-02-06T01:32:40.816Z,102604.66
2023-02-06T01:37:42.411Z,102597.69
2023-02-06T01:42:44.132Z,102577.63
2023-02-06T01:47:45.805Z,102553.03
2023-02-06T01:52:47.833Z,102553.38
2023-02-06T01:57:49.420Z,102533.16
2023-02-06T02:02:51.114Z,102518.59
2023-02-06T02:08:02.042Z,102521.72
2023-02-06T02:13:03.617Z,102510.25
2023-02-06T02:18:34.685Z,102485.50
2023-02-06T02:23:42.462Z,102507.63
2023-02-06T02:29:09.003Z,102497.22
2023-02-06T02:34:28.989Z,102503.25
2023-02-06T02:39:50.423Z,102505.59
2023-02-06T02:45:04.376Z,102505.47
2023-02-06T02:50:07.264Z,102523.28
2023-02-06T02:55:22.583Z,102508.56
2023-02-06T03:00:29.830Z,102523.44
2023-02-06T03:05:36.645Z,102516.63
2023-02-06T03:10:44.446Z,102529.03
2023-02-06T03:16:11.739Z,102539.59
2023-02-06T03:21:17.947Z,102559.38
2023-02-06T03:26:24.774Z,102570.28
2023-02-06T03:31:32.297Z,102572.13
2023-02-06T03:36:34.294Z,102571.13
2023-02-06T03:41:39.190Z,102568.34
2023-02-06T03:46:43.637Z,102554.81
2023-02-06T03:51:55.720Z,102565.53
2023-02-06T03:57:01.048Z,102571.88
2023-02-06T04:02:04.613Z,102569.31
2023-02-06T04:07:14.745Z,102570.28
2023-02-06T04:12:16.823Z,102568.59
2023-02-06T04:17:36.873Z,102577.66
2023-02-06T04:22:40.969Z,102583.91
2023-02-06T04:27:42.563Z,102583.69
2023-02-06T04:32:44.185Z,102592.53
2023-02-06T04:37:48.097Z,102593.50
2023-02-06T04:42:49.615Z,102593.63
2023-02-06T04:47:51.207Z,102596.44
2023-02-06T04:52:52.772Z,102599.38
2023-02-06T04:57:54.303Z,102592.56
2023-02-06T05:02:55.863Z,102592.56
2023-02-06T05:07:57.444Z,102594.66
2023-02-06T05:12:59.058Z,102577.69
2023-02-06T05:18:00.579Z,102581.47
2023-02-06T05:23:02.275Z,102577.06
2023-02-06T05:28:06.679Z,102578.88
2023-02-06T05:33:08.512Z,102580.22
2023-02-06T05:38:10.065Z,102592.00
2023-02-06T05:43:12.279Z,102608.31
2023-02-06T05:48:13.847Z,102613.59
2023-02-06T05:53:17.038Z,102611.66
2023-02-06T05:58:18.903Z,102623.31
2023-02-06T06:03:20.465Z,102621.59
2023-02-06T06:08:22.463Z,102625.78
2023-02-06T06:13:24.055Z,102625.56
2023-02-06T06:18:26.676Z,102624.38
2023-02-06T06:23:28.388Z,102611.84
2023-02-06T06:28:30.072Z,102628.03
2023-02-06T06:33:31.851Z,102631.69
2023-02-06T06:38:33.684Z,102636.25
2023-02-06T06:43:35.257Z,102640.78
2023-02-06T06:48:38.456Z,102674.50
2023-02-06T06:53:42.539Z,102671.72
2023-02-06T06:58:44.194Z,102670.59
2023-02-06T07:03:47.130Z,102657.84
2023-02-06T07:08:49.489Z,102641.19
2023-02-06T07:13:51.099Z,102648.34
2023-02-06T07:18:52.692Z,102661.84
2023-02-06T07:23:54.435Z,102674.25
2023-02-06T07:28:56.141Z,102683.09
2023-02-06T07:33:57.751Z,102700.94
2023-02-06T07:38:59.501Z,102698.84
2023-02-06T07:44:01.068Z,102696.81
2023-02-06T07:49:02.785Z,102688.25
2023-02-06T07:54:04.496Z,102703.25
2023-02-06T07:59:06.225Z,102707.59
2023-02-06T08:04:07.788Z,102728.47
2023-02-06T08:09:13.553Z,102737.97
2023-02-06T08:14:22.029Z,102743.47
2023-02-06T08:19:23.856Z,102737.75
2023-02-06T08:24:25.786Z,102759.22
2023-02-06T08:29:27.383Z,102766.97
2023-02-06T08:34:28.961Z,102756.63
2023-02-06T08:39:30.708Z,102759.31
2023-02-06T08:44:32.448Z,102761.81
2023-02-06T08:49:34.023Z,102789.41
2023-02-06T08:54:38.349Z,102822.19
2023-02-06T08:59:41.583Z,102844.03
2023-02-06T09:04:43.395Z,102852.94
2023-02-06T09:09:45.102Z,102874.22
2023-02-06T09:14:46.831Z,102889.28
2023-02-06T09:19:48.521Z,102896.66
2023-02-06T09:24:50.167Z,102914.38
2023-02-06T09:29:51.781Z,102952.19
2023-02-06T09:34:53.352Z,102962.44
2023-02-06T09:39:55.070Z,102986.34
2023-02-06T09:45:13.854Z,103015.03
2023-02-06T09:50:53.077Z,103030.34
2023-02-06T09:56:01.345Z,103025.22
2023-02-06T10:01:21.837Z,103027.66
2023-02-06T10:06:39.110Z,103036.38
2023-02-06T10:11:53.138Z,103052.69
2023-02-06T10:17:13.234Z,103012.34
2023-02-06T10:22:21.202Z,102762.00
2023-02-06T10:27:22.835Z,102688.34
2023-02-06T10:32:27.913Z,102576.59
2023-02-06T10:37:32.400Z,102540.38
2023-02-06T10:42:37.074Z,102491.09
2023-02-06T10:47:49.906Z,102482.34
2023-02-06T10:52:53.435Z,102457.22
2023-02-06T10:58:30.256Z,102427.41
2023-02-06T11:03:33.209Z,102470.59
2023-02-06T11:08:42.487Z,102486.81
2023-02-06T11:13:45.895Z,102455.91
2023-02-06T11:18:49.666Z,102451.91
2023-02-06T11:24:09.576Z,102439.22
2023-02-06T11:29:18.436Z,102418.78
2023-02-06T11:34:33.586Z,102415.78
2023-02-06T11:39:39.453Z,102411.63
2023-02-06T11:44:43.576Z,102411.69
2023-02-06T11:49:45.391Z,102400.41
2023-02-06T11:54:54.709Z,102416.38
2023-02-06T12:00:20.936Z,102418.44
2023-02-06T12:05:28.327Z,102402.50
2023-02-06T12:10:35.631Z,102411.31
2023-02-06T12:15:50.292Z,102407.34
2023-02-06T12:20:56.156Z,102373.91
2023-02-06T12:26:01.960Z,102334.47
2023-02-06T12:31:12.953Z,102312.78
2023-02-06T12:36:20.853Z,102302.72
2023-02-06T12:41:40.346Z,102277.59
2023-02-06T12:46:44.971Z,102272.44
2023-02-06T12:52:02.786Z,102300.53
2023-02-06T12:57:12.648Z,102305.84
2023-02-06T13:02:35.512Z,102227.16
2023-02-06T13:07:48.988Z,102217.91
2023-02-06T13:12:58.638Z,102194.22
2023-02-06T13:18:00.250Z,102131.13
2023-02-06T13:23:13.894Z,102126.44
2023-02-06T13:28:27.563Z,102091.03
2023-02-06T13:33:42.850Z,102121.31
2023-02-06T13:38:44.560Z,102062.63
2023-02-06T13:44:12.953Z,102090.34
2023-02-06T13:49:35.909Z,102028.09
2023-02-06T13:54:40.215Z,102067.22
2023-02-06T13:59:47.353Z,102028.41
2023-02-06T14:04:55.774Z,101977.63
2023-02-06T14:10:19.654Z,102054.22
2023-02-06T14:15:46.856Z,102035.41
2023-02-06T14:21:13.165Z,102014.28
2023-02-06T14:26:14.885Z,102016.41
2023-02-06T14:31:25.320Z,102016.28
2023-02-06T14:36:30.319Z,102018.41
2023-02-06T14:41:33.176Z,101975.16
2023-02-06T14:46:35.003Z,101993.75
2023-02-06T14:51:39.330Z,101933.94
2023-02-06T14:56:41.157Z,102038.09
2023-02-06T15:01:46.886Z,102043.97
2023-02-06T15:07:00.121Z,102051.78
2023-02-06T15:12:25.055Z,102045.66
2023-02-06T15:17:26.922Z,102042.09
2023-02-06T15:22:30.639Z,102054.94
2023-02-06T15:27:34.973Z,102054.66
2023-02-06T15:32:39.510Z,102075.19
2023-02-06T15:37:41.074Z,102065.22
2023-02-06T15:42:43.038Z,102054.34
2023-02-06T15:47:46.902Z,102071.44
2023-02-06T15:52:48.571Z,102083.94
2023-02-06T15:57:50.595Z,102080.66
2023-02-06T16:02:55.723Z,102082.09
2023-02-06T16:07:57.911Z,102092.59
2023-02-06T16:13:01.630Z,102099.41
2023-02-06T16:18:25.134Z,102118.06
2023-02-06T16:23:29.993Z,102125.72
2023-02-06T16:28:31.497Z,102113.75
2023-02-06T16:33:42.302Z,102123.31
2023-02-06T16:38:48.423Z,102144.00
2023-02-06T16:43:56.801Z,102152.44
2023-02-06T16:48:59.515Z,102162.66
2023-02-06T16:54:01.095Z,102192.13
2023-02-06T16:59:02.635Z,102192.94
2023-02-06T17:04:04.242Z,102185.28
2023-02-06T17:09:10.946Z,102198.28
2023-02-06T17:14:12.486Z,102185.84
2023-02-06T17:19:15.513Z,102190.44
2023-02-06T17:24:17.080Z,102193.88
2023-02-06T17:29:18.611Z,102184.19
2023-02-06T17:34:20.173Z,102195.47
2023-02-06T17:39:22.962Z,102195.47
2023-02-06T17:44:24.493Z,102197.72
2023-02-06T17:49:26.013Z,102196.38
2023-02-06T17:54:27.636Z,102176.31
2023-02-06T17:59:29.159Z,102151.56
2023-02-06T18:04:30.671Z,102152.25
2023-02-06T18:09:32.158Z,102133.31
2023-02-06T18:14:35.380Z,102154.50
2023-02-06T18:19:42.211Z,102147.50
2023-02-06T18:24:44.222Z,102157.94
2023-02-06T18:29:50.213Z,102157.56
2023-02-06T18:34:52.227Z,102150.91
2023-02-06T18:39:55.218Z,102145.75
2023-02-06T18:44:56.751Z,102141.16
2023-02-06T18:49:58.308Z,102158.03
2023-02-06T18:54:59.890Z,102159.38
2023-02-06T19:00:01.540Z,102156.69
2023-02-06T19:05:03.784Z,102172.78
2023-02-06T19:10:09.998Z,102181.72
2023-02-06T19:15:12.842Z,102177.78
2023-02-06T19:20:14.385Z,102165.50
2023-02-06T19:25:16.000Z,102172.78
2023-02-06T19:30:17.605Z,102176.00
2023-02-06T19:35:20.493Z,102174.25
2023-02-06T19:40:22.101Z,102174.03
2023-02-06T19:45:23.674Z,102166.03
2023-02-06T19:50:25.260Z,102162.59
2023-02-06T19:55:26.862Z,102178.31
2023-02-06T20:00:28.903Z,102174.28
2023-02-06T20:05:33.257Z,102178.31
2023-02-06T20:10:37.714Z,102193.41
2023-02-06T20:15:39.504Z,102189.94
2023-02-06T20:20:41.078Z,102204.78
2023-02-06T20:25:42.593Z,102188.06
2023-02-06T20:30:44.350Z,102182.66
2023-02-06T20:35:45.951Z,102174.47
2023-02-06T20:40:51.022Z,102180.63
2023-02-06T20:45:52.561Z,102197.47
2023-02-06T20:51:02.034Z,102190.47
2023-02-06T20:56:03.914Z,102185.81
2023-02-06T21:01:22.081Z,102179.28
2023-02-06T21:06:23.685Z,102147.13
2023-02-06T21:11:29.675Z,102136.63
2023-02-06T21:16:32.452Z,102154.34
2023-02-06T21:21:34.172Z,102189.56
2023-02-06T21:26:36.828Z,102152.00
2023-02-06T21:31:39.026Z,102124.97
2023-02-06T21:36:41.779Z,102103.59
2023-02-06T21:41:44.518Z,102116.38
2023-02-06T21:46:46.314Z,102097.47
2023-02-06T21:51:47.911Z,102093.22
2023-02-06T21:56:49.475Z,102133.84
2023-02-06T22:01:51.151Z,102134.59
2023-02-06T22:06:52.675Z,102126.59
2023-02-06T22:11:54.256Z,102119.59
2023-02-06T22:16:55.879Z,102122.28
2023-02-06T22:21:57.381Z,102135.66
2023-02-06T22:26:58.928Z,102121.31
2023-02-06T22:32:04.392Z,102125.00
2023-02-06T22:37:05.942Z,102124.53
2023-02-06T22:42:07.552Z,102139.97
2023-02-06T22:47:09.088Z,102136.63
2023-02-06T22:52:30.605Z,102155.84
2023-02-06T22:57:33.501Z,102152.16
2023-02-06T23:02:35.339Z,102166.31
2023-02-06T23:07:37.168Z,102171.16
2023-02-06T23:12:38.704Z,102203.97
2023-02-06T23:17:40.269Z,102196.25
2023-02-06T23:22:41.791Z,102213.31
2023-02-06T23:27:43.299Z,102206.84
2023-02-06T23:32:44.988Z,102211.81
2023-02-06T23:37:46.487Z,102219.09
2023-02-06T23:42:48.026Z,102220.72
2023-02-06T23:47:50.920Z,102212.78
2023-02-06T23:52:52.525Z,102225.38
2023-02-06T23:57:54.480Z,102230.88
